createdAt,value
2017-10-18T00:00:14.187Z,97.96
2017-10-18T00:02:42.637Z,97.51
2017-10-18T00:05:11.105Z,97.31
2017-10-18T00:07:40.350Z,97.35
2017-10-18T00:10:08.809Z,97.53
2017-10-18T00:12:37.313Z,97.49
2017-10-18T00:15:05.782Z,97.36
2017-10-18T00:17:34.229Z,97.35
2017-10-18T00:20:03.469Z,97.36
2017-10-18T00:22:31.927Z,97.43
2017-10-18T00:25:00.389Z,97.47
2017-10-18T00:27:29.597Z,97.20
2017-10-18T00:29:58.929Z,97.29
2017-10-18T00:32:27.374Z,97.41
2017-10-18T00:34:56.590Z,97.76
2017-10-18T00:37:25.053Z,97.82
2017-10-18T00:39:54.285Z,98.01
2017-10-18T00:42:22.752Z,98.09
2017-10-18T00:44:51.258Z,97.59
2017-10-18T00:47:19.725Z,97.32
2017-10-18T00:49:48.172Z,97.31
2017-10-18T00:52:16.641Z,96.98
2017-10-18T00:54:45.195Z,97.65
2017-10-18T00:57:13.666Z,97.35
2017-10-18T00:59:42.149Z,97.31
2017-10-18T01:02:10.634Z,97.64
2017-10-18T01:04:39.120Z,97.38
2017-10-18T01:07:07.570Z,97.35
2017-10-18T01:09:36.049Z,97.37
2017-10-18T01:12:05.263Z,97.39
2017-10-18T01:14:33.758Z,97.09
2017-10-18T01:17:02.214Z,96.92
2017-10-18T01:19:31.458Z,97.13
2017-10-18T01:21:59.897Z,97.23
2017-10-18T01:24:29.244Z,96.80
2017-10-18T01:26:57.707Z,96.84
2017-10-18T01:29:26.297Z,97.15
2017-10-18T01:31:54.741Z,97.08
2017-10-18T01:34:23.974Z,97.35
2017-10-18T01:36:52.417Z,97.33
2017-10-18T01:39:21.649Z,97.39
2017-10-18T01:41:50.105Z,97.90
2017-10-18T01:44:19.339Z,97.49
2017-10-18T01:46:47.811Z,97.22
2017-10-18T01:49:16.265Z,97.47
2017-10-18T01:51:45.598Z,97.21
2017-10-18T01:54:14.035Z,97.83
2017-10-18T01:56:43.265Z,98.46
2017-10-18T01:59:11.700Z,98.57
2017-10-18T02:01:40.170Z,98.50
2017-10-18T02:04:08.730Z,98.22
2017-10-18T02:06:37.311Z,98.16
2017-10-18T02:09:05.759Z,98.05
2017-10-18T02:11:35.002Z,97.85
2017-10-18T02:14:03.442Z,97.64
2017-10-18T02:16:32.674Z,97.61
2017-10-18T02:19:01.160Z,97.41
2017-10-18T02:21:29.605Z,97.87
2017-10-18T02:23:58.837Z,97.74
2017-10-18T02:26:27.293Z,97.82
2017-10-18T02:28:55.804Z,97.82
2017-10-18T02:31:24.278Z,97.80
2017-10-18T02:33:52.745Z,97.59
2017-10-18T02:36:21.208Z,97.77
2017-10-18T02:38:50.449Z,98.21
2017-10-18T02:41:18.933Z,98.33
2017-10-18T02:43:47.413Z,97.90
2017-10-18T02:46:15.891Z,97.90
2017-10-18T02:48:44.367Z,98.52
2017-10-18T02:51:12.809Z,98.22
2017-10-18T02:53:42.041Z,98.18
2017-10-18T02:56:10.486Z,98.29
2017-10-18T02:58:38.938Z,99.00
2017-10-18T03:01:07.499Z,99.15
2017-10-18T03:03:35.965Z,98.82
2017-10-18T03:06:04.473Z,98.53
2017-10-18T03:08:32.914Z,98.68
2017-10-18T03:11:02.151Z,98.92
2017-10-18T03:13:30.589Z,98.81
2017-10-18T03:15:59.934Z,98.38
2017-10-18T03:18:28.377Z,98.09
2017-10-18T03:20:57.595Z,98.46
2017-10-18T03:23:26.037Z,98.31
2017-10-18T03:25:54.510Z,98.40
2017-10-18T03:28:22.950Z,98.31
2017-10-18T03:30:51.436Z,98.16
2017-10-18T03:33:19.901Z,98.24
2017-10-18T03:35:48.343Z,98.29
2017-10-18T03:38:17.582Z,98.46
2017-10-18T03:40:46.025Z,97.87
2017-10-18T03:43:14.493Z,98.10
2017-10-18T03:45:43.051Z,98.06
2017-10-18T03:48:11.519Z,97.89
2017-10-18T03:50:39.977Z,97.92
2017-10-18T03:53:09.206Z,97.92
2017-10-18T03:55:37.658Z,97.97
2017-10-18T03:58:06.893Z,98.02
2017-10-18T04:00:35.343Z,98.00
2017-10-18T04:03:03.857Z,97.92
2017-10-18T04:05:32.433Z,97.90
2017-10-18T04:08:00.889Z,98.03
2017-10-18T04:10:30.227Z,98.01
2017-10-18T04:12:58.682Z,98.25
2017-10-18T04:15:27.194Z,98.07
2017-10-18T04:17:55.644Z,98.15
2017-10-18T04:20:24.114Z,98.09
2017-10-18T04:22:53.352Z,97.91
2017-10-18T04:25:21.918Z,97.97
2017-10-18T04:27:50.370Z,97.83
2017-10-18T04:30:19.718Z,97.71
2017-10-18T04:32:48.203Z,97.79
2017-10-18T04:35:16.669Z,97.88
2017-10-18T04:37:45.162Z,97.82
2017-10-18T04:40:13.614Z,97.95
2017-10-18T04:42:42.850Z,97.85
2017-10-18T04:45:11.288Z,97.71
2017-10-18T04:47:40.519Z,97.70
2017-10-18T04:50:09.004Z,97.94
2017-10-18T04:52:37.475Z,98.01
2017-10-18T04:55:05.922Z,97.94
2017-10-18T04:57:35.266Z,97.94
2017-10-18T05:00:03.711Z,97.95
2017-10-18T05:02:32.948Z,97.99
2017-10-18T05:05:01.393Z,97.93
2017-10-18T05:07:30.631Z,97.94
2017-10-18T05:09:59.097Z,97.67
2017-10-18T05:12:27.537Z,97.61
2017-10-18T05:14:56.005Z,97.45
2017-10-18T05:17:24.569Z,97.41
2017-10-18T05:19:53.038Z,97.54
2017-10-18T05:22:21.486Z,97.82
2017-10-18T05:24:50.833Z,98.09
2017-10-18T05:27:19.282Z,97.93
2017-10-18T05:29:47.785Z,97.83
2017-10-18T05:32:16.277Z,97.91
2017-10-18T05:34:44.746Z,97.93
2017-10-18T05:37:13.189Z,98.34
2017-10-18T05:39:42.421Z,98.50
2017-10-18T05:42:10.922Z,98.35
2017-10-18T05:44:39.370Z,98.53
2017-10-18T05:47:08.602Z,98.39
2017-10-18T05:49:37.053Z,98.73
2017-10-18T05:52:07.231Z,98.39
2017-10-18T05:54:35.668Z,98.53
2017-10-18T05:57:04.128Z,99.09
2017-10-18T05:59:33.340Z,98.73
2017-10-18T06:02:01.809Z,98.72
2017-10-18T06:04:31.016Z,98.24
2017-10-18T06:07:00.242Z,98.11
2017-10-18T06:09:28.721Z,97.92
2017-10-18T06:11:57.325Z,97.78
2017-10-18T06:14:25.767Z,97.79
2017-10-18T06:16:54.236Z,97.62
2017-10-18T06:19:23.458Z,97.43
2017-10-18T06:21:51.910Z,97.25
2017-10-18T06:24:21.145Z,97.31
2017-10-18T06:26:49.590Z,97.16
2017-10-18T06:29:18.817Z,96.90
2017-10-18T06:31:47.266Z,97.09
2017-10-18T06:34:15.733Z,96.96
2017-10-18T06:36:44.178Z,96.64
2017-10-18T06:39:12.648Z,96.49
2017-10-18T06:41:41.092Z,96.48
2017-10-18T06:44:09.553Z,96.34
2017-10-18T06:46:38.101Z,96.17
2017-10-18T06:49:06.587Z,96.04
2017-10-18T06:51:35.028Z,96.02
2017-10-18T06:54:04.379Z,95.89
2017-10-18T06:56:32.854Z,95.92
2017-10-18T06:59:01.299Z,95.98
2017-10-18T07:01:30.642Z,96.01
2017-10-18T07:03:59.084Z,95.99
2017-10-18T07:06:28.323Z,95.58
2017-10-18T07:08:56.812Z,95.89
2017-10-18T07:11:25.273Z,95.45
2017-10-18T07:13:53.723Z,95.13
2017-10-18T07:16:23.063Z,95.01
2017-10-18T07:18:51.509Z,95.01
2017-10-18T07:21:20.741Z,94.78
2017-10-18T07:23:49.187Z,94.61
2017-10-18T07:26:18.437Z,94.54
2017-10-18T07:28:46.913Z,94.41
2017-10-18T07:31:15.381Z,94.31
2017-10-18T07:33:43.879Z,94.04
2017-10-18T07:36:12.346Z,94.34
2017-10-18T07:38:40.842Z,93.90
2017-10-18T07:41:09.290Z,94.00
2017-10-18T07:43:38.518Z,93.67
2017-10-18T07:46:06.966Z,93.43
2017-10-18T07:48:36.298Z,92.95
2017-10-18T07:51:04.745Z,93.13
2017-10-18T07:53:33.977Z,93.09
2017-10-18T07:56:02.468Z,92.90
2017-10-18T07:58:31.042Z,93.18
2017-10-18T08:00:59.486Z,92.67
2017-10-18T08:03:28.721Z,92.37
2017-10-18T08:05:57.210Z,92.55
2017-10-18T08:08:25.697Z,92.71
2017-10-18T08:10:54.143Z,92.82
2017-10-18T08:13:22.664Z,92.01
2017-10-18T08:15:51.115Z,92.26
2017-10-18T08:18:19.609Z,92.33
2017-10-18T08:20:48.079Z,92.48
2017-10-18T08:23:16.526Z,92.20
2017-10-18T08:25:44.989Z,91.96
2017-10-18T08:28:13.425Z,91.80
2017-10-18T08:30:41.893Z,92.05
2017-10-18T08:33:11.131Z,92.06
2017-10-18T08:35:39.614Z,91.59
2017-10-18T08:38:08.058Z,91.37
2017-10-18T08:40:37.288Z,91.42
2017-10-18T08:43:05.728Z,90.03
2017-10-18T08:45:34.959Z,90.17
2017-10-18T08:48:03.458Z,89.91
2017-10-18T08:50:32.032Z,89.93
2017-10-18T08:53:00.473Z,89.76
2017-10-18T08:55:29.710Z,89.38
2017-10-18T08:57:58.571Z,89.37
2017-10-18T09:00:27.814Z,88.25
2017-10-18T09:02:56.274Z,87.56
2017-10-18T09:05:24.713Z,87.71
2017-10-18T09:07:53.260Z,87.43
2017-10-18T09:10:21.719Z,87.44
2017-10-18T09:12:50.218Z,86.39
2017-10-18T09:15:18.657Z,86.65
2017-10-18T09:17:47.885Z,86.04
2017-10-18T09:20:16.388Z,86.62
2017-10-18T09:22:44.971Z,86.37
2017-10-18T09:25:13.447Z,86.18
2017-10-18T09:27:41.913Z,86.06
2017-10-18T09:30:10.363Z,84.65
2017-10-18T09:32:39.630Z,85.00
2017-10-18T09:35:08.089Z,83.00
2017-10-18T09:37:36.581Z,83.20
2017-10-18T09:40:05.047Z,83.71
2017-10-18T09:42:33.484Z,84.19
2017-10-18T09:45:01.945Z,82.89
2017-10-18T09:47:30.386Z,82.26
2017-10-18T09:49:58.850Z,81.14
2017-10-18T09:52:28.057Z,80.75
2017-10-18T09:54:56.563Z,81.25
2017-10-18T09:57:25.050Z,81.22
2017-10-18T09:59:53.522Z,81.68
2017-10-18T10:02:21.978Z,81.69
2017-10-18T10:04:51.310Z,81.00
2017-10-18T10:07:19.794Z,80.72
2017-10-18T10:09:48.291Z,80.82
2017-10-18T10:12:16.733Z,81.56
2017-10-18T10:14:45.169Z,80.53
2017-10-18T10:17:13.638Z,80.17
2017-10-18T10:19:42.087Z,80.26
2017-10-18T10:22:10.590Z,80.51
2017-10-18T10:24:39.069Z,80.27
2017-10-18T10:27:07.532Z,80.29
2017-10-18T10:29:36.028Z,79.44
2017-10-18T10:32:04.497Z,80.26
2017-10-18T10:34:32.942Z,79.93
2017-10-18T10:37:01.412Z,78.95
2017-10-18T10:39:29.859Z,78.97
2017-10-18T10:41:58.331Z,78.25
2017-10-18T10:44:26.931Z,78.59
2017-10-18T10:46:55.394Z,77.79
2017-10-18T10:49:23.838Z,76.78
2017-10-18T10:51:54.005Z,76.88
2017-10-18T10:54:22.493Z,75.25
2017-10-18T10:56:50.970Z,76.86
2017-10-18T10:59:19.410Z,75.84
2017-10-18T11:01:49.615Z,76.12
2017-10-18T11:04:18.061Z,77.52
2017-10-18T11:06:46.535Z,75.14
2017-10-18T11:09:14.973Z,76.07
2017-10-18T11:11:44.181Z,74.80
2017-10-18T11:14:13.404Z,75.86
2017-10-18T11:16:41.838Z,75.13
2017-10-18T11:19:10.292Z,75.24
2017-10-18T11:21:38.733Z,75.56
2017-10-18T11:24:08.057Z,74.64
2017-10-18T11:26:36.493Z,74.07
2017-10-18T11:29:04.953Z,74.07
2017-10-18T11:31:33.512Z,73.72
2017-10-18T11:34:01.988Z,74.80
2017-10-18T11:36:30.430Z,76.23
2017-10-18T11:38:59.772Z,75.48
2017-10-18T11:41:28.362Z,76.08
2017-10-18T11:43:56.846Z,75.32
2017-10-18T11:46:25.320Z,75.31
2017-10-18T11:48:53.911Z,73.91
2017-10-18T11:51:23.122Z,73.25
2017-10-18T11:53:51.689Z,73.02
2017-10-18T11:56:20.133Z,71.65
2017-10-18T11:58:49.470Z,72.08
2017-10-18T12:01:17.916Z,72.14
2017-10-18T12:03:47.118Z,72.29
2017-10-18T12:06:16.345Z,71.73
2017-10-18T12:08:44.834Z,71.35
2017-10-18T12:11:13.381Z,72.08
2017-10-18T12:13:42.588Z,71.11
2017-10-18T12:16:12.027Z,72.22
2017-10-18T12:18:40.465Z,72.04
2017-10-18T12:21:09.689Z,71.22
2017-10-18T12:23:38.191Z,71.30
2017-10-18T12:26:06.650Z,72.14
2017-10-18T12:28:35.148Z,69.91
2017-10-18T12:31:03.610Z,69.83
2017-10-18T12:33:32.062Z,69.33
2017-10-18T12:36:00.632Z,69.40
2017-10-18T12:38:29.075Z,70.53
2017-10-18T12:40:57.660Z,69.88
2017-10-18T12:43:26.143Z,70.16
2017-10-18T12:45:54.619Z,70.68
2017-10-18T12:48:23.092Z,70.25
2017-10-18T12:50:51.566Z,71.59
2017-10-18T12:53:20.006Z,71.06
2017-10-18T12:55:48.450Z,71.88
2017-10-18T12:58:16.918Z,70.61
2017-10-18T13:00:45.357Z,70.89
2017-10-18T13:03:13.816Z,70.18
2017-10-18T13:05:42.252Z,69.85
2017-10-18T13:08:10.726Z,69.95
2017-10-18T13:10:39.941Z,69.61
2017-10-18T13:13:08.401Z,69.53
2017-10-18T13:15:37.605Z,69.93
2017-10-18T13:18:06.835Z,70.11
2017-10-18T13:20:35.280Z,70.31
2017-10-18T13:23:04.510Z,70.44
2017-10-18T13:25:33.005Z,70.59
2017-10-18T13:28:02.102Z,70.99
2017-10-18T13:30:30.573Z,72.97
2017-10-18T13:32:59.270Z,73.06
2017-10-18T13:35:27.752Z,72.00
2017-10-18T13:37:56.233Z,72.01
2017-10-18T13:40:24.698Z,72.95
2017-10-18T13:42:53.148Z,72.50
2017-10-18T13:45:22.377Z,71.01
2017-10-18T13:47:50.878Z,71.64
2017-10-18T13:50:19.337Z,72.31
2017-10-18T13:52:47.774Z,72.62
2017-10-18T13:55:16.237Z,71.92
2017-10-18T13:57:44.678Z,72.80
2017-10-18T14:00:13.141Z,72.72
2017-10-18T14:02:42.355Z,71.75
2017-10-18T14:05:10.974Z,71.63
2017-10-18T14:07:39.450Z,72.11
2017-10-18T14:10:07.910Z,71.77
2017-10-18T14:12:36.355Z,72.09
2017-10-18T14:15:04.891Z,71.79
2017-10-18T14:17:33.338Z,71.78
2017-10-18T14:20:02.681Z,72.82
2017-10-18T14:22:31.139Z,73.10
2017-10-18T14:24:59.646Z,73.50
2017-10-18T14:27:28.128Z,73.62
2017-10-18T14:29:56.589Z,74.56
2017-10-18T14:32:25.087Z,74.36
2017-10-18T14:34:53.526Z,73.52
2017-10-18T14:37:22.753Z,74.03
2017-10-18T14:39:51.255Z,73.70
2017-10-18T14:42:19.717Z,74.69
2017-10-18T14:44:48.162Z,74.37
2017-10-18T14:47:17.410Z,74.90
2017-10-18T14:49:45.888Z,74.44
2017-10-18T14:52:14.348Z,76.03
2017-10-18T14:54:43.549Z,75.43
2017-10-18T14:57:12.010Z,75.36
2017-10-18T14:59:41.262Z,76.89
2017-10-18T15:02:09.722Z,76.50
2017-10-18T15:04:38.181Z,77.23
2017-10-18T15:07:07.405Z,77.25
2017-10-18T15:09:35.853Z,76.61
2017-10-18T15:12:05.088Z,75.66
2017-10-18T15:14:33.597Z,76.49
2017-10-18T15:17:02.076Z,76.88
2017-10-18T15:19:30.529Z,77.43
2017-10-18T15:21:59.017Z,77.52
2017-10-18T15:24:27.461Z,78.44
2017-10-18T15:26:56.671Z,77.89
2017-10-18T15:29:25.897Z,78.22
2017-10-18T15:31:54.342Z,78.45
2017-10-18T15:34:23.573Z,78.84
2017-10-18T15:36:52.019Z,78.83
2017-10-18T15:39:36.532Z,78.91
2017-10-18T15:42:05.801Z,78.96
2017-10-18T15:44:35.129Z,80.14
2017-10-18T15:47:04.433Z,79.85
2017-10-18T15:49:32.893Z,80.20
2017-10-18T15:52:01.333Z,80.40
2017-10-18T15:54:29.806Z,80.51
2017-10-18T15:56:58.353Z,81.03
2017-10-18T15:59:26.827Z,81.78
2017-10-18T16:01:55.267Z,82.34
2017-10-18T16:04:23.729Z,82.36
2017-10-18T16:06:52.181Z,82.33
2017-10-18T16:09:20.665Z,82.55
2017-10-18T16:11:49.105Z,82.98
2017-10-18T16:14:18.446Z,83.58
2017-10-18T16:16:46.893Z,83.54
2017-10-18T16:19:16.110Z,84.32
2017-10-18T16:21:44.574Z,84.40
2017-10-18T16:24:13.789Z,84.62
2017-10-18T16:26:42.291Z,84.65
2017-10-18T16:29:10.734Z,84.98
2017-10-18T16:31:39.961Z,85.43
2017-10-18T16:34:08.405Z,85.99
2017-10-18T16:36:36.935Z,86.43
2017-10-18T16:39:05.380Z,86.39
2017-10-18T16:41:33.867Z,87.37
2017-10-18T16:44:03.069Z,87.36
2017-10-18T16:46:32.404Z,87.17
2017-10-18T16:49:00.851Z,86.64
2017-10-18T16:51:30.086Z,87.41
2017-10-18T16:53:58.568Z,87.22
2017-10-18T16:56:27.151Z,88.02
2017-10-18T16:58:55.597Z,87.46
2017-10-18T17:01:24.811Z,87.41
2017-10-18T17:03:53.309Z,87.79
2017-10-18T17:06:21.758Z,88.39
2017-10-18T17:08:50.991Z,88.30
2017-10-18T17:11:19.469Z,88.76
2017-10-18T17:13:47.945Z,88.83
2017-10-18T17:16:16.396Z,88.74
2017-10-18T17:18:45.625Z,89.27
2017-10-18T17:21:14.081Z,89.31
2017-10-18T17:23:43.419Z,89.31
2017-10-18T17:26:11.901Z,89.75
2017-10-18T17:28:40.490Z,89.85
2017-10-18T17:31:08.929Z,89.66
2017-10-18T17:33:38.166Z,89.88
2017-10-18T17:36:06.613Z,90.42
2017-10-18T17:38:35.875Z,90.36
2017-10-18T17:41:04.438Z,90.25
2017-10-18T17:43:32.886Z,90.12
2017-10-18T17:46:02.122Z,90.24
2017-10-18T17:48:30.587Z,89.86
2017-10-18T17:50:59.069Z,90.62
2017-10-18T17:53:27.565Z,91.05
2017-10-18T17:55:56.034Z,91.30
2017-10-18T17:58:24.485Z,91.05
2017-10-18T18:00:53.714Z,91.11
2017-10-18T18:03:22.210Z,91.08
2017-10-18T18:05:50.694Z,91.35
2017-10-18T18:08:19.137Z,91.25
2017-10-18T18:10:48.474Z,90.58
2017-10-18T18:13:16.917Z,91.17
2017-10-18T18:15:46.253Z,91.49
2017-10-18T18:18:14.706Z,91.48
2017-10-18T18:20:43.965Z,91.43
2017-10-18T18:23:12.410Z,91.51
2017-10-18T18:25:40.865Z,91.27
2017-10-18T18:28:10.095Z,91.25
2017-10-18T18:30:38.537Z,91.20
2017-10-18T18:33:07.770Z,91.46
2017-10-18T18:35:36.210Z,91.33
2017-10-18T18:38:05.451Z,91.46
2017-10-18T18:40:33.898Z,90.96
2017-10-18T18:43:03.144Z,91.45
2017-10-18T18:45:31.585Z,91.41
2017-10-18T18:48:00.819Z,91.63
2017-10-18T18:50:29.258Z,91.69
2017-10-18T18:52:58.494Z,92.08
2017-10-18T18:55:26.954Z,92.13
2017-10-18T18:57:56.192Z,92.04
2017-10-18T19:00:24.668Z,92.02
2017-10-18T19:02:53.129Z,92.35
2017-10-18T19:05:21.584Z,92.10
2017-10-18T19:07:50.813Z,92.18
2017-10-18T19:10:19.260Z,92.11
2017-10-18T19:12:48.512Z,91.99
2017-10-18T19:15:16.953Z,92.46
2017-10-18T19:17:46.181Z,92.53
2017-10-18T19:20:14.621Z,92.92
2017-10-18T19:22:43.868Z,93.25
2017-10-18T19:25:12.322Z,93.14
2017-10-18T19:27:41.549Z,93.35
2017-10-18T19:30:10.035Z,93.43
2017-10-18T19:32:38.519Z,93.30
2017-10-18T19:35:06.985Z,93.05
2017-10-18T19:37:35.430Z,93.23
2017-10-18T19:40:04.665Z,93.14
2017-10-18T19:42:33.165Z,93.18
2017-10-18T19:45:01.747Z,93.06
2017-10-18T19:47:30.189Z,92.98
2017-10-18T19:49:59.428Z,92.80
2017-10-18T19:52:27.870Z,92.63
2017-10-18T19:54:57.211Z,92.61
2017-10-18T19:57:25.649Z,92.28
2017-10-18T19:59:54.882Z,92.49
2017-10-18T20:02:23.365Z,92.59
2017-10-18T20:04:51.878Z,92.54
2017-10-18T20:07:20.326Z,92.64
2017-10-18T20:09:48.820Z,92.37
2017-10-18T20:12:17.285Z,92.04
2017-10-18T20:14:45.731Z,92.29
2017-10-18T20:17:14.965Z,91.95
2017-10-18T20:19:43.413Z,91.67
2017-10-18T20:22:12.651Z,92.00
2017-10-18T20:24:41.141Z,91.86
2017-10-18T20:27:09.633Z,91.90
2017-10-18T20:29:38.110Z,92.38
2017-10-18T20:32:06.573Z,92.41
2017-10-18T20:34:35.008Z,92.66
2017-10-18T20:37:03.483Z,92.50
2017-10-18T20:39:31.936Z,92.57
2017-10-18T20:42:00.442Z,92.72
2017-10-18T20:44:28.884Z,92.43
2017-10-18T20:46:57.373Z,93.06
2017-10-18T20:49:25.864Z,92.82
2017-10-18T20:51:54.309Z,92.91
2017-10-18T20:54:23.639Z,92.91
2017-10-18T20:56:52.089Z,93.08
2017-10-18T20:59:21.323Z,93.16
2017-10-18T21:01:49.800Z,93.69
2017-10-18T21:04:18.265Z,93.55
2017-10-18T21:06:46.710Z,93.24
2017-10-18T21:09:15.189Z,93.53
2017-10-18T21:11:43.637Z,93.37
2017-10-18T21:14:12.215Z,93.48
2017-10-18T21:16:40.702Z,93.65
2017-10-18T21:19:09.165Z,93.53
2017-10-18T21:21:37.657Z,93.57
2017-10-18T21:24:06.137Z,93.50
2017-10-18T21:26:34.583Z,93.66
2017-10-18T21:29:03.809Z,93.63
2017-10-18T21:31:32.262Z,93.68
2017-10-18T21:34:01.487Z,93.31
2017-10-18T21:36:29.934Z,94.00
2017-10-18T21:38:58.400Z,94.64
2017-10-18T21:41:26.910Z,94.74
2017-10-18T21:43:56.104Z,94.81
2017-10-18T21:46:25.560Z,94.96
2017-10-18T21:48:54.010Z,94.80
2017-10-18T21:51:23.332Z,94.63
2017-10-18T21:53:51.828Z,94.74
2017-10-18T21:56:20.300Z,94.50
2017-10-18T21:58:48.752Z,94.26
2017-10-18T22:01:17.976Z,93.91
2017-10-18T22:03:46.419Z,93.92
2017-10-18T22:06:15.663Z,93.35
2017-10-18T22:08:44.154Z,93.84
2017-10-18T22:11:12.734Z,93.67
2017-10-18T22:13:41.212Z,94.04
2017-10-18T22:16:09.680Z,93.96
2017-10-18T22:18:38.118Z,93.87
2017-10-18T22:21:06.613Z,93.76
2017-10-18T22:23:35.822Z,93.99
2017-10-18T22:26:05.062Z,93.77
2017-10-18T22:28:33.529Z,93.97
2017-10-18T22:31:01.966Z,93.83
2017-10-18T22:33:31.205Z,93.67
2017-10-18T22:35:59.646Z,93.67
2017-10-18T22:38:28.182Z,93.52
2017-10-18T22:40:56.629Z,93.59
2017-10-18T22:43:25.868Z,93.43
2017-10-18T22:45:54.318Z,93.52
2017-10-18T22:48:23.550Z,93.54
2017-10-18T22:50:51.997Z,93.91
2017-10-18T22:53:21.332Z,93.91
2017-10-18T22:55:49.811Z,93.81
2017-10-18T22:58:18.340Z,94.11
2017-10-18T23:00:46.880Z,94.08
2017-10-18T23:03:15.364Z,94.43
2017-10-18T23:05:43.838Z,94.30
2017-10-18T23:08:12.327Z,94.67
2017-10-18T23:10:40.900Z,94.52
2017-10-18T23:13:09.344Z,94.04
2017-10-18T23:15:38.695Z,93.71
2017-10-18T23:18:07.177Z,93.47
2017-10-18T23:20:35.645Z,93.23
2017-10-18T23:23:04.101Z,93.54
2017-10-18T23:25:32.586Z,92.51
2017-10-18T23:28:01.798Z,92.36
2017-10-18T23:30:30.304Z,92.37
2017-10-18T23:32:58.777Z,92.13
2017-10-18T23:35:27.263Z,91.95
2017-10-18T23:37:55.708Z,91.79
2017-10-18T23:40:24.948Z,91.56
2017-10-18T23:42:53.398Z,91.46
2017-10-18T23:45:22.634Z,91.70
2017-10-18T23:47:51.076Z,91.61
2017-10-18T23:50:20.406Z,91.99
2017-10-18T23:52:54.195Z,91.92
2017-10-18T23:55:22.657Z,91.44
2017-10-18T23:57:51.868Z,91.10
